Weather at Phuket International Airport

Public forecast

Using degrees Celsius for public forecast. Weather courtesy of forecast.io.

Current aviation weather report (METAR) for Phuket International Airport

2022/12/02 23:30 (retrieved 11 minutes ago)

VTSP 022330Z 07003KT 030V110 9999 FEW020 SCT100 25/24 Q1008 NOSIG

Aviation forecast (TAF) for Phuket International Airport

2022/12/02 18:36 (retrieved 5 hours ago)

TAF VTSP 021700Z 0218/0324 00000KT 9999 SCT020 TEMPO 0220/0224 10015G25KT 4000 TSRA FEW018CB SCT020 BKN100 BECMG 0300/0302 10006KT TEMPO 0302/0308 10015G25KT 4000 TSRA FEW018CB SCT020 BKN100